Fountain Green, Illinois
Current Conditions -  °F | °C
As of 12:15 AM on Sunday 21 Dec 2014 (Local Time) from KMQB Reporting Station
Haze Haze  
Wind Chill: 29°   Ceiling: 3500
Heat Index: 35°   Visibility: 5mi
Dew Point: 34°   Wind: 8mph
Humidity: 94%   Direction: 170°S
Pressure: 30.21"   Gusts: NA
Location:  40.4155°N, 91.0269°W
Report Text: KMQB 210615Z AUTO 17007KT 5SM BR SCT025 OVC035 02/01 A3021 RMK AO2 T00180010
Loading
Personal Weather Stations






























Interactive Weather Map New forecast layout! Learn more

10-Day Weather Forecast

Advertisements
Track Severe Weather on mobile